Time;durP1;ratioP1;P1;durP2;ratioP2;P2;SDS_P1;SDS_P2;PMS_P1;PMS_P2;Temp;Humidity;BMP_temperature;BMP_pressure;BME280_temperature;BME280_humidity;BME280_pressure;Samples;Min_cycle;Max_cycle;Signal;HPM_P1;HPM_P2
2022/02/06 00:01:59;;;;;;;18.92;11.43;;;;;;;3.98;71.08;96058.28;5028246;28;20496;-75
2022/02/06 00:04:25;;;;;;;19.02;11.43;;;;;;;4.05;70.43;96054.19;5029007;28;20488;-75
2022/02/06 00:06:52;;;;;;;16.27;10.63;;;;;;;4.03;70.60;96057.94;5028239;28;20080;-76
2022/02/06 00:09:18;;;;;;;15.25;10.50;;;;;;;3.97;70.71;96069.03;5028752;28;20033;-76
2022/02/06 00:11:43;;;;;;;15.57;9.82;;;;;;;4.00;70.56;96074.94;5026890;28;20500;-76
2022/02/06 00:14:08;;;;;;;16.10;9.95;;;;;;;4.02;70.02;96082.78;5010531;28;20045;-76
2022/02/06 00:16:34;;;;;;;14.40;10.48;;;;;;;4.00;69.67;96077.59;5010701;28;20050;-76
2022/02/06 00:18:59;;;;;;;16.42;11.35;;;;;;;4.09;69.93;96076.03;5028133;28;20465;-76
2022/02/06 00:21:25;;;;;;;17.75;10.60;;;;;;;4.02;70.12;96067.69;5028489;28;20543;-76
2022/02/06 00:23:53;;;;;;;19.65;11.60;;;;;;;3.80;71.08;96064.06;5026640;28;20044;-76
2022/02/06 00:29:24;;;;;;;19.17;13.35;;;;;;;3.73;71.51;96072.59;5026624;28;20124;-76
2022/02/06 00:32:00;;;;;;;21.13;13.27;;;;;;;3.81;70.89;96068.41;5026960;28;20022;-76
2022/02/06 00:39:47;;;;;;;21.55;12.98;;;;;;;3.81;71.11;96068.41;5027381;28;20036;-77
2022/02/06 00:42:13;;;;;;;19.65;12.93;;;;;;;3.87;70.88;96067.06;5027904;28;20025;-77
2022/02/06 00:44:38;;;;;;;22.50;13.27;;;;;;;3.79;71.83;96059.72;5027795;28;20029;-77
2022/02/06 00:47:04;;;;;;;22.45;13.95;;;;;;;3.67;72.06;96066.84;5026505;28;20407;-76
2022/02/06 00:49:31;;;;;;;19.52;12.93;;;;;;;3.77;71.25;96061.63;5026530;28;20028;-76
2022/02/06 00:54:25;;;;;;;21.17;13.32;;;;;;;3.78;71.27;96058.03;5026527;28;20072;-76
2022/02/06 00:56:50;;;;;;;20.52;12.45;;;;;;;3.81;71.12;96065.75;5026654;28;20033;-76
2022/02/06 00:59:16;;;;;;;21.00;12.95;;;;;;;3.85;71.21;96062.88;5009381;28;20041;-76
2022/02/06 01:01:42;;;;;;;18.75;12.43;;;;;;;3.87;70.74;96061.78;5026079;28;20089;-76
2022/02/06 01:04:09;;;;;;;21.95;14.15;;;;;;;3.90;70.45;96050.09;5025667;28;20025;-76
2022/02/06 01:06:34;;;;;;;19.00;13.60;;;;;;;3.93;70.03;96050.66;5027395;28;20029;-77
2022/02/06 01:08:59;;;;;;;20.70;13.10;;;;;;;3.89;70.44;96043.91;5026299;28;20040;-77
2022/02/06 01:11:25;;;;;;;20.33;13.40;;;;;;;3.87;70.17;96047.66;5027565;28;20029;-77
2022/02/06 01:16:25;;;;;;;23.67;14.27;;;;;;;3.92;70.34;96056.94;5026925;28;20033;-77
2022/02/06 01:19:04;;;;;;;24.70;14.50;;;;;;;3.87;70.57;96055.63;5026462;28;20021;-76
2022/02/06 01:24:04;;;;;;;21.90;14.30;;;;;;;3.91;69.79;96054.41;5027299;28;20147;-76
2022/02/06 01:29:10;;;;;;;23.38;14.93;;;;;;;3.85;70.74;96049.59;5025769;28;20033;-76
2022/02/06 01:34:12;;;;;;;27.25;16.05;;;;;;;3.69;71.20;96048.13;5026794;28;20044;-75
2022/02/06 01:36:44;;;;;;;23.92;14.95;;;;;;;3.65;71.07;96034.25;5025524;28;20036;-76
2022/02/06 01:39:37;;;;;;;22.55;14.15;;;;;;;3.73;71.07;96038.97;5025573;28;20362;-76
2022/02/06 01:42:04;;;;;;;25.23;14.52;;;;;;;3.85;70.45;96037.19;5025388;28;20319;-76
2022/02/06 01:44:45;;;;;;;30.02;15.50;;;;;;;3.92;69.64;96045.47;5026636;28;20048;-75
2022/02/06 02:03:41;;;;;;;26.35;14.70;;;;;;;3.90;69.45;96048.25;5025277;28;20028;-77
2022/02/06 02:09:21;;;;;;;23.08;14.07;;;;;;;3.91;68.53;96046.47;5026622;28;20040;-78
2022/02/06 02:12:05;;;;;;;22.05;13.38;;;;;;;3.90;68.38;96034.16;5024947;28;20040;-76
2022/02/06 02:30:44;;;;;;;20.83;13.00;;;;;;;3.70;68.30;96044.50;5024131;28;20113;-77
2022/02/06 02:49:31;;;;;;;25.30;14.18;;;;;;;3.57;68.88;96050.78;5028680;28;20088;-74
2022/02/06 02:52:03;;;;;;;19.25;12.88;;;;;;;3.61;67.98;96056.66;5027486;28;20037;-76
2022/02/06 02:54:30;;;;;;;21.58;12.90;;;;;;;3.61;67.76;96053.19;5025914;28;20527;-76
2022/02/06 02:57:19;;;;;;;21.25;13.35;;;;;;;3.58;67.74;96056.91;5026334;28;20088;-76
2022/02/06 03:00:03;;;;;;;21.33;12.95;;;;;;;3.64;67.57;96055.59;5025968;28;20514;-75
2022/02/06 03:02:29;;;;;;;20.67;13.20;;;;;;;3.61;66.94;96066.44;5024755;28;20040;-76
2022/02/06 03:04:57;;;;;;;20.73;12.95;;;;;;;3.59;67.26;96061.28;5025881;28;20026;-77
2022/02/06 03:07:22;;;;;;;23.23;13.35;;;;;;;3.64;66.75;96067.06;5025613;28;20030;-76
2022/02/06 03:09:49;;;;;;;24.35;13.38;;;;;;;3.66;66.69;96059.00;5024743;28;20029;-76
2022/02/06 03:12:17;;;;;;;26.67;14.43;;;;;;;3.63;66.38;96070.66;5024426;28;20034;-77
2022/02/06 03:14:49;;;;;;;29.48;14.68;;;;;;;3.68;66.57;96057.03;5024423;28;20037;-75
2022/02/06 03:17:32;;;;;;;28.53;15.03;;;;;;;3.62;66.84;96062.81;5024157;28;20197;-75
2022/02/06 03:20:07;;;;;;;26.80;15.67;;;;;;;3.59;67.33;96059.44;5024663;28;20342;-75
2022/02/06 03:22:46;;;;;;;24.83;14.07;;;;;;;3.57;67.06;96063.19;5024342;28;20025;-75
2022/02/06 03:25:17;;;;;;;25.13;14.52;;;;;;;3.61;67.02;96055.84;5024580;28;20113;-77
2022/02/06 03:27:43;;;;;;;21.10;13.43;;;;;;;3.52;67.29;96057.38;5028330;28;20031;-77
2022/02/06 03:30:09;;;;;;;22.15;14.25;;;;;;;3.30;67.83;96059.03;5029355;28;20052;-76
2022/02/06 03:32:34;;;;;;;19.88;13.32;;;;;;;3.42;67.09;96062.53;5029302;28;20022;-75
2022/02/06 03:35:00;;;;;;;19.50;12.63;;;;;;;3.36;66.85;96063.00;5027780;28;20018;-76
2022/02/06 03:37:25;;;;;;;20.88;13.10;;;;;;;3.24;67.21;96065.63;5027718;28;20472;-76
2022/02/06 03:39:53;;;;;;;20.45;12.68;;;;;;;3.24;66.79;96059.50;5029114;28;20427;-76
2022/02/06 03:42:21;;;;;;;19.42;12.35;;;;;;;3.31;65.94;96066.00;5027758;28;20038;-75
2022/02/06 03:44:50;;;;;;;19.80;12.77;;;;;;;3.30;65.70;96053.72;5029185;28;20455;-77
2022/02/06 03:47:19;;;;;;;23.90;12.13;;;;;;;3.29;65.47;96055.53;5027501;28;20420;-76
2022/02/06 03:49:57;;;;;;;17.65;12.02;;;;;;;3.20;65.42;96059.72;5028872;28;20040;-77
2022/02/06 03:52:27;;;;;;;22.65;13.18;;;;;;;3.14;65.62;96057.53;5027354;28;20029;-77
2022/02/06 03:54:53;;;;;;;20.08;12.32;;;;;;;3.15;65.57;96053.06;5027733;28;20117;-76
2022/02/06 03:57:18;;;;;;;18.13;11.70;;;;;;;3.16;65.35;96058.25;5027642;28;20030;-76
2022/02/06 03:59:44;;;;;;;19.38;11.95;;;;;;;3.24;64.68;96064.81;5010662;28;20048;-77
2022/02/06 04:02:09;;;;;;;20.33;11.90;;;;;;;3.13;64.69;96062.97;5029004;28;20483;-77
2022/02/06 04:04:35;;;;;;;19.48;12.40;;;;;;;3.13;64.48;96065.63;5027104;28;20427;-77
2022/02/06 04:07:12;;;;;;;20.20;12.02;;;;;;;3.20;64.42;96069.47;5027528;28;20041;-76
2022/02/06 04:09:45;;;;;;;18.67;11.88;;;;;;;3.13;64.45;96069.09;5027429;28;20455;-76
2022/02/06 04:12:13;;;;;;;19.63;11.52;;;;;;;3.17;62.51;96070.56;5028676;28;20100;-76
2022/02/06 04:14:53;;;;;;;15.70;10.40;;;;;;;3.15;62.63;96071.63;5028420;28;20050;-76
2022/02/06 04:17:22;;;;;;;16.70;11.07;;;;;;;3.02;63.45;96067.25;5028493;28;20056;-77
2022/02/06 04:19:47;;;;;;;17.38;11.40;;;;;;;3.03;63.53;96062.81;5027088;28;20029;-77
2022/02/06 04:22:13;;;;;;;20.13;11.57;;;;;;;2.99;63.35;96074.56;5028307;28;20036;-76
2022/02/06 04:24:38;;;;;;;18.65;10.82;;;;;;;3.00;62.68;96076.28;5010502;28;20040;-77
2022/02/06 04:27:04;;;;;;;16.08;10.43;;;;;;;2.94;62.11;96064.31;5026940;28;20756;-78
2022/02/06 04:29:30;;;;;;;16.08;10.13;;;;;;;3.00;61.98;96070.97;5028430;28;20476;-76
2022/02/06 04:31:55;;;;;;;15.52;10.65;;;;;;;2.95;62.37;96072.16;5028111;28;20033;-77
2022/02/06 04:34:21;;;;;;;17.13;10.55;;;;;;;2.90;61.93;96074.28;5027972;28;20199;-76
2022/02/06 04:42:11;;;;;;;16.50;10.32;;;;;;;3.01;60.82;96085.91;5028061;28;20037;-78
2022/02/06 04:44:59;;;;;;;15.93;9.82;;;;;;;2.92;61.29;96080.31;5027812;28;20093;-76
2022/02/06 04:48:11;;;;;;;13.15;9.40;;;;;;;2.83;61.39;96076.56;5027843;28;20468;-76
2022/02/06 05:30:14;;;;;;;17.95;10.70;;;;;;;2.19;63.14;96107.56;5027132;28;20033;-76
2022/02/06 05:32:57;;;;;;;17.08;10.88;;;;;;;2.16;63.12;96107.78;5027287;28;20488;-75
2022/02/06 05:35:23;;;;;;;17.00;10.13;;;;;;;2.20;63.24;96111.91;5026847;28;20550;-78
2022/02/06 05:37:48;;;;;;;19.00;10.45;;;;;;;2.24;63.02;96114.34;5009248;28;20029;-76
2022/02/06 05:40:14;;;;;;;15.80;10.30;;;;;;;2.22;62.81;96109.16;5025205;28;20037;-79
2022/02/06 05:42:39;;;;;;;18.65;10.00;;;;;;;2.37;63.35;96119.63;5026982;28;20033;-75
2022/02/06 05:45:05;;;;;;;16.13;10.65;;;;;;;2.29;63.07;96121.00;5025257;28;20022;-75
2022/02/06 05:47:33;;;;;;;18.67;10.98;;;;;;;2.31;62.78;96119.09;5025394;28;20064;-75
2022/02/06 05:49:58;;;;;;;18.15;11.48;;;;;;;2.33;63.17;96125.13;5008931;28;20033;-76
2022/02/06 05:52:25;;;;;;;17.27;11.15;;;;;;;2.40;62.83;96124.69;5025573;28;20038;-77
2022/02/06 05:54:50;;;;;;;18.67;11.70;;;;;;;2.42;63.04;96128.09;5026968;28;20100;-75
2022/02/06 05:57:15;;;;;;;20.67;11.65;;;;;;;2.57;62.76;96123.47;5024985;28;20041;-78
2022/02/06 05:59:41;;;;;;;16.42;10.40;;;;;;;2.61;62.21;96126.75;5025331;28;20076;-76
2022/02/06 06:02:06;;;;;;;23.85;11.95;;;;;;;2.70;62.37;96126.09;5024758;28;20032;-76
2022/02/06 06:04:32;;;;;;;17.65;11.52;;;;;;;2.80;61.86;96118.31;5027707;28;20025;-77
2022/02/06 06:06:57;;;;;;;20.08;11.85;;;;;;;2.90;61.60;96126.47;5008504;28;20036;-77
2022/02/06 06:09:23;;;;;;;20.67;11.38;;;;;;;2.99;61.66;96132.88;5026186;28;20079;-77
2022/02/06 06:11:48;;;;;;;20.65;11.82;;;;;;;3.12;61.04;96127.50;5026559;28;20030;-78
2022/02/06 06:14:14;;;;;;;20.17;11.10;;;;;;;3.25;60.42;96128.31;5025854;28;20438;-78
2022/02/06 06:16:39;;;;;;;19.88;12.55;;;;;;;3.30;60.54;96138.56;5025180;28;20064;-77
2022/02/06 06:19:05;;;;;;;16.98;11.52;;;;;;;3.33;60.45;96135.69;5024557;28;20037;-76
2022/02/06 06:21:36;;;;;;;21.08;12.13;;;;;;;3.51;59.88;96133.47;5025602;28;20044;-78
2022/02/06 06:24:03;;;;;;;19.33;12.18;;;;;;;3.69;59.06;96141.00;5025247;28;20030;-79
2022/02/06 06:26:33;;;;;;;28.60;14.85;;;;;;;3.73;59.09;96146.91;5008386;28;20519;-77
2022/02/06 06:28:59;;;;;;;22.75;13.45;;;;;;;3.87;59.34;96146.69;5025382;28;20030;-77
2022/02/06 06:31:26;;;;;;;20.25;12.75;;;;;;;3.95;58.82;96148.75;5024602;28;20037;-79
2022/02/06 06:33:51;;;;;;;22.20;13.70;;;;;;;4.05;58.58;96149.75;4992307;28;20030;-77
2022/02/06 06:36:20;;;;;;;23.52;13.48;;;;;;;4.16;58.17;96140.13;5025981;28;20071;-78
2022/02/06 06:38:46;;;;;;;19.13;11.98;;;;;;;4.21;57.57;96153.84;5026275;28;20029;-77
2022/02/06 06:41:11;;;;;;;19.20;12.27;;;;;;;4.29;57.60;96151.47;5024467;28;20038;-78
2022/02/06 06:43:36;;;;;;;20.67;12.68;;;;;;;4.37;56.79;96147.38;5026042;28;20499;-77
2022/02/06 06:46:02;;;;;;;19.90;13.13;;;;;;;4.44;57.29;96154.72;5024803;28;20018;-78
2022/02/06 06:48:27;;;;;;;21.05;13.43;;;;;;;4.46;57.49;96154.59;5024295;28;20044;-78
2022/02/06 06:50:53;;;;;;;24.13;13.88;;;;;;;4.61;57.05;96155.19;5025998;28;20025;-77
2022/02/06 06:53:18;;;;;;;21.08;13.18;;;;;;;4.71;57.38;96152.66;5024278;28;20030;-77
2022/02/06 06:55:48;;;;;;;19.00;12.05;;;;;;;4.76;56.03;96158.44;5024683;28;20439;-76
2022/02/06 06:58:25;;;;;;;21.05;12.23;;;;;;;4.85;55.90;96166.66;5008325;28;20017;-76
2022/02/06 07:01:09;;;;;;;20.88;12.25;;;;;;;4.96;55.71;96163.97;5026792;28;20033;-79
2022/02/06 07:03:35;;;;;;;20.42;12.88;;;;;;;5.03;56.38;96151.88;5029779;28;20032;-76
2022/02/06 07:06:01;;;;;;;20.13;12.88;;;;;;;5.11;55.35;96158.38;5028238;28;20521;-77
2022/02/06 07:08:26;;;;;;;19.15;13.13;;;;;;;5.23;54.77;96152.06;5028427;28;20037;-78
2022/02/06 07:10:52;;;;;;;22.27;12.10;;;;;;;5.35;54.43;96162.66;5030163;28;20022;-78
2022/02/06 07:13:21;;;;;;;18.52;12.18;;;;;;;5.44;53.97;96156.59;5029204;28;20041;-76
2022/02/06 07:15:46;;;;;;;18.65;12.27;;;;;;;5.54;53.25;96160.19;5028172;28;20033;-77
2022/02/06 07:18:12;;;;;;;23.02;11.77;;;;;;;5.52;52.81;96161.25;5028391;28;20038;-75
2022/02/06 07:20:37;;;;;;;21.05;11.98;;;;;;;5.59;52.99;96164.25;5028165;28;20041;-75
2022/02/06 07:23:04;;;;;;;18.35;11.38;;;;;;;5.74;52.22;96149.66;5029400;28;20021;-77
2022/02/06 07:25:29;;;;;;;20.17;12.15;;;;;;;5.77;52.07;96152.06;5029377;28;20454;-76
2022/02/06 07:27:55;;;;;;;20.35;12.55;;;;;;;5.80;52.21;96157.13;5028015;28;20421;-76
2022/02/06 07:30:21;;;;;;;18.42;11.85;;;;;;;5.87;52.83;96156.63;5027866;28;20071;-77
2022/02/06 07:32:47;;;;;;;19.63;12.32;;;;;;;5.99;51.96;96147.59;5027880;28;20026;-77
2022/02/06 07:35:13;;;;;;;18.50;12.07;;;;;;;5.97;52.07;96152.22;5011862;28;20527;-76
2022/02/06 07:37:44;;;;;;;15.15;10.40;;;;;;;5.92;52.08;96155.25;5027568;28;20033;-76
2022/02/06 07:40:10;;;;;;;19.17;11.13;;;;;;;5.96;53.04;96158.50;5027769;28;20041;-76
2022/02/06 07:42:35;;;;;;;18.90;11.85;;;;;;;6.02;52.41;96160.66;5010920;28;20026;-77
2022/02/06 07:45:02;;;;;;;16.58;10.63;;;;;;;6.19;52.75;96158.38;5028984;28;20084;-78
2022/02/06 07:47:27;;;;;;;17.50;10.77;;;;;;;6.32;52.33;96160.84;5027448;28;20029;-76
2022/02/06 07:49:54;;;;;;;16.10;10.32;;;;;;;6.49;51.75;96159.41;5028667;28;20029;-75
2022/02/06 07:52:23;;;;;;;17.48;10.43;;;;;;;6.55;51.40;96160.66;5027658;28;20038;-76
2022/02/06 07:54:49;;;;;;;18.50;12.13;;;;;;;6.57;51.14;96163.19;5028735;28;20488;-77
2022/02/06 07:57:15;;;;;;;23.77;11.25;;;;;;;6.69;50.75;96159.44;5027503;28;20032;-77
2022/02/06 07:59:40;;;;;;;15.75;10.73;;;;;;;6.72;50.56;96156.53;5027422;28;20053;-77
2022/02/06 08:02:06;;;;;;;16.83;10.60;;;;;;;6.83;50.48;96160.06;5027600;28;20037;-77
2022/02/06 08:04:32;;;;;;;17.70;10.23;;;;;;;6.95;49.93;96163.50;5027222;28;20104;-75
2022/02/06 08:06:57;;;;;;;15.02;9.20;;;;;;;6.98;49.50;96155.22;5028560;28;20022;-77
2022/02/06 08:09:38;;;;;;;16.42;10.07;;;;;;;7.05;48.77;96157.19;5028818;28;20021;-78
2022/02/06 08:12:05;;;;;;;15.82;9.85;;;;;;;7.00;49.13;96159.41;5027401;28;20079;-76
2022/02/06 08:14:50;;;;;;;15.73;9.60;;;;;;;7.01;49.52;96155.75;5027855;28;20104;-76
2022/02/06 08:17:17;;;;;;;12.20;8.50;;;;;;;7.18;48.08;96156.09;5027512;28;20108;-78
2022/02/06 08:19:44;;;;;;;15.85;8.35;;;;;;;7.14;48.31;96150.16;5026867;28;20021;-77
2022/02/06 08:22:10;;;;;;;13.10;8.25;;;;;;;7.18;48.15;96142.75;5028321;28;20029;-79
2022/02/06 08:24:35;;;;;;;14.73;8.43;;;;;;;7.34;47.39;96141.34;5026602;28;20104;-76
2022/02/06 08:27:01;;;;;;;12.13;7.30;;;;;;;7.34;46.57;96144.88;5031291;28;20025;-76
2022/02/06 08:29:26;;;;;;;9.65;6.70;;;;;;;7.51;46.73;96151.34;5028665;28;20037;-77
2022/02/06 08:31:52;;;;;;;13.15;7.57;;;;;;;7.59;46.05;96153.31;5027863;28;20454;-78
2022/02/06 08:34:18;;;;;;;13.80;6.20;;;;;;;7.60;45.31;96148.81;5027097;28;20483;-78
2022/02/06 08:36:43;;;;;;;10.93;6.45;;;;;;;7.62;44.08;96141.50;5027828;28;20025;-78
2022/02/06 08:39:09;;;;;;;15.23;6.82;;;;;;;7.68;44.49;96140.94;5026979;28;20099;-76
2022/02/06 08:41:34;;;;;;;11.02;6.28;;;;;;;7.73;43.78;96140.50;5027679;28;20451;-77
2022/02/06 08:44:02;;;;;;;10.00;5.65;;;;;;;7.81;43.16;96140.66;5027833;28;20484;-76
2022/02/06 08:46:27;;;;;;;9.35;5.88;;;;;;;7.82;43.59;96142.31;4994289;28;20029;-78
2022/02/06 08:48:53;;;;;;;10.75;6.28;;;;;;;7.84;43.14;96140.38;5026484;28;20561;-76
2022/02/06 08:51:18;;;;;;;15.00;6.65;;;;;;;7.79;43.38;96138.13;5027947;28;20029;-75
2022/02/06 08:53:44;;;;;;;9.10;5.70;;;;;;;7.87;42.71;96145.41;5026149;28;20033;-77
2022/02/06 08:56:09;;;;;;;8.23;4.85;;;;;;;7.77;41.96;96141.94;5027820;28;20516;-76
2022/02/06 08:58:35;;;;;;;8.95;5.00;;;;;;;7.76;41.31;96142.91;5027728;28;20551;-77
2022/02/06 09:01:01;;;;;;;7.95;4.50;;;;;;;7.75;41.09;96141.22;5027796;28;20495;-77
2022/02/06 09:03:26;;;;;;;7.63;5.13;;;;;;;7.75;40.72;96150.09;5009782;28;20094;-77
2022/02/06 09:05:52;;;;;;;10.05;5.55;;;;;;;7.77;40.99;96147.28;5009747;28;20029;-77
2022/02/06 09:08:17;;;;;;;11.10;5.18;;;;;;;7.75;40.57;96144.75;5026296;28;20024;-76
2022/02/06 09:10:42;;;;;;;8.07;5.35;;;;;;;7.79;41.64;96147.97;5026116;28;20025;-75
2022/02/06 09:13:08;;;;;;;9.38;6.18;;;;;;;7.73;41.40;96144.03;5009394;28;20017;-78
2022/02/06 09:15:33;;;;;;;8.88;5.95;;;;;;;7.81;41.14;96143.31;5009187;28;20111;-77
2022/02/06 09:17:59;;;;;;;9.88;4.90;;;;;;;7.73;39.76;96146.72;5025997;28;20091;-77
2022/02/06 09:20:24;;;;;;;7.28;4.93;;;;;;;7.82;39.83;96141.50;5027163;28;20083;-77
2022/02/06 09:22:50;;;;;;;6.20;4.28;;;;;;;7.79;38.81;96135.44;5009383;28;20025;-78
2022/02/06 09:25:16;;;;;;;6.97;4.45;;;;;;;7.86;38.62;96137.56;5025993;28;20124;-77
2022/02/06 09:27:42;;;;;;;5.93;3.50;;;;;;;7.89;38.44;96137.25;5027291;28;20108;-77
2022/02/06 09:30:17;;;;;;;8.40;4.88;;;;;;;7.89;38.92;96126.59;5025553;28;20109;-75
2022/02/06 09:35:09;;;;;;;8.48;4.13;;;;;;;7.82;38.89;96130.81;5009254;28;20033;-78
2022/02/06 09:37:34;;;;;;;7.00;4.18;;;;;;;7.91;38.22;96132.63;5027034;28;20022;-77
2022/02/06 09:40:00;;;;;;;8.25;4.15;;;;;;;7.96;38.45;96132.19;5026724;28;20526;-77
2022/02/06 09:42:27;;;;;;;7.85;4.50;;;;;;;8.04;38.92;96135.81;5008819;28;20029;-77
2022/02/06 09:44:52;;;;;;;6.97;4.65;;;;;;;8.10;38.23;96126.41;5025502;28;20407;-77
2022/02/06 09:47:22;;;;;;;5.18;3.38;;;;;;;8.13;38.33;96122.59;5009305;28;20032;-76
2022/02/06 09:49:48;;;;;;;9.80;5.00;;;;;;;8.16;38.36;96116.97;5025352;28;20029;-78
2022/02/06 09:52:25;;;;;;;8.10;4.38;;;;;;;8.20;37.58;96115.69;5025036;28;20021;-77
2022/02/06 09:54:51;;;;;;;6.10;4.25;;;;;;;8.20;37.72;96102.34;5009491;28;20063;-77
2022/02/06 09:57:29;;;;;;;8.73;4.10;;;;;;;8.27;37.24;96100.75;5008760;28;20030;-77
2022/02/06 09:59:54;;;;;;;6.43;3.50;;;;;;;8.27;38.09;96094.59;5009650;28;20045;-77
2022/02/06 10:02:25;;;;;;;6.63;3.95;;;;;;;8.23;36.76;96090.50;5008577;28;20048;-77
2022/02/06 10:04:51;;;;;;;7.32;3.67;;;;;;;8.26;37.32;96083.03;5009295;28;20025;-76
2022/02/06 10:07:19;;;;;;;6.93;3.95;;;;;;;8.30;37.03;96086.28;5024796;28;20025;-79
2022/02/06 10:09:51;;;;;;;5.32;3.00;;;;;;;8.26;36.69;96082.19;5008699;28;20094;-77
2022/02/06 10:12:16;;;;;;;8.23;5.47;;;;;;;8.24;37.33;96068.97;5024878;28;20359;-79
2022/02/06 10:14:42;;;;;;;6.65;4.80;;;;;;;8.27;37.98;96076.69;5025045;28;20037;-78
2022/02/06 10:17:07;;;;;;;6.72;4.53;;;;;;;8.29;36.65;96069.38;5024352;28;20486;-77
2022/02/06 10:19:35;;;;;;;5.55;3.78;;;;;;;8.31;36.11;96066.56;5025035;28;20022;-78
2022/02/06 10:22:01;;;;;;;7.30;4.30;;;;;;;8.32;36.52;96059.41;5026256;28;20415;-77
2022/02/06 10:24:30;;;;;;;5.75;3.67;;;;;;;8.34;36.15;96054.72;5008103;28;20443;-76
2022/02/06 10:29:51;;;;;;;7.75;4.00;;;;;;;8.35;37.46;96051.09;5009696;28;20029;-77
2022/02/06 10:32:17;;;;;;;10.85;4.32;;;;;;;8.42;37.50;96049.50;5026006;28;20108;-74
2022/02/06 10:34:42;;;;;;;7.97;4.97;;;;;;;8.54;37.35;96039.44;5026014;28;20025;-76
2022/02/06 10:37:15;;;;;;;6.40;3.85;;;;;;;8.50;37.09;96030.88;5025346;28;20037;-76
2022/02/06 10:40:06;;;;;;;5.32;3.33;;;;;;;8.55;37.16;96029.59;5026299;28;20079;-77
2022/02/06 10:42:33;;;;;;;7.38;3.65;;;;;;;8.58;37.04;96023.97;5025754;28;20077;-78
2022/02/06 10:45:17;;;;;;;5.32;3.70;;;;;;;8.64;37.09;96015.38;5024964;28;20037;-77
2022/02/06 10:47:43;;;;;;;5.75;3.20;;;;;;;8.64;37.17;96002.81;5025571;28;20034;-75
2022/02/06 10:50:16;;;;;;;5.35;3.47;;;;;;;8.69;36.74;96009.56;5024615;28;20542;-77
2022/02/06 10:52:42;;;;;;;6.57;3.92;;;;;;;8.66;37.40;96005.34;5025106;28;20109;-78
2022/02/06 10:55:08;;;;;;;5.55;3.83;;;;;;;8.73;36.01;96000.22;5011011;28;20038;-76
2022/02/06 10:57:34;;;;;;;6.18;3.25;;;;;;;8.77;36.26;95988.22;5014147;28;20034;-78
2022/02/06 11:00:02;;;;;;;5.82;3.78;;;;;;;8.75;36.70;95987.56;5024372;28;20033;-77
2022/02/06 11:02:29;;;;;;;6.53;3.72;;;;;;;8.83;36.51;95989.47;5024369;28;20064;-76
2022/02/06 11:04:59;;;;;;;6.05;3.83;;;;;;;8.86;36.16;95984.66;5024378;28;20025;-77
2022/02/06 11:07:24;;;;;;;8.32;3.25;;;;;;;8.89;36.11;95973.66;5024007;28;20025;-79
2022/02/06 11:09:50;;;;;;;5.07;2.88;;;;;;;8.94;35.56;95975.88;5008398;28;20034;-77
2022/02/06 11:12:18;;;;;;;4.55;3.15;;;;;;;8.96;35.90;95968.53;5025871;28;20447;-79
2022/02/06 11:14:49;;;;;;;4.68;2.90;;;;;;;9.02;35.31;95972.41;5024468;28;20041;-78
2022/02/06 11:17:19;;;;;;;4.75;3.05;;;;;;;9.09;35.75;95962.75;5008877;28;20495;-78
2022/02/06 11:20:08;;;;;;;5.47;2.88;;;;;;;9.19;35.84;95961.84;5024715;28;20080;-77
2022/02/06 11:22:33;;;;;;;4.93;2.72;;;;;;;9.23;35.50;95963.22;5007864;28;20025;-77
2022/02/06 11:24:59;;;;;;;4.13;3.03;;;;;;;9.37;35.69;95953.78;5024394;28;20112;-80
2022/02/06 11:27:26;;;;;;;5.88;3.00;;;;;;;9.48;35.19;95950.03;4991301;28;20025;-77
2022/02/06 11:29:51;;;;;;;6.85;3.05;;;;;;;9.55;34.84;95942.19;5025865;28;20036;-77
2022/02/06 11:32:16;;;;;;;5.90;3.42;;;;;;;9.64;33.97;95942.06;5008234;28;20018;-76
2022/02/06 11:34:43;;;;;;;8.10;2.95;;;;;;;9.79;32.59;95936.13;5025266;28;20036;-78
2022/02/06 11:45:56;;;;;;;5.00;3.00;;;;;;;10.01;31.71;95924.00;5026153;28;20564;-79
2022/02/06 11:48:22;;;;;;;4.03;2.95;;;;;;;10.00;32.38;95911.59;5011185;28;20028;-76
2022/02/06 11:50:49;;;;;;;5.45;2.97;;;;;;;10.05;32.11;95911.13;5027390;28;20025;-76
2022/02/06 11:53:38;;;;;;;4.88;3.00;;;;;;;10.12;32.37;95911.31;5011488;28;20033;-76
2022/02/06 11:56:30;;;;;;;4.70;2.88;;;;;;;10.22;31.87;95909.31;5012686;28;20028;-76
2022/02/06 11:59:20;;;;;;;5.20;2.90;;;;;;;10.18;30.91;95891.91;5028319;28;20042;-77
2022/02/06 12:01:45;;;;;;;5.68;2.83;;;;;;;10.21;31.68;95894.25;5027366;28;20503;-77
2022/02/06 12:04:21;;;;;;;3.67;2.63;;;;;;;10.32;31.67;95893.09;5027561;28;20032;-76
2022/02/06 12:06:46;;;;;;;3.53;2.33;;;;;;;10.37;32.02;95880.03;5028592;28;20057;-77
2022/02/06 12:09:29;;;;;;;6.38;3.97;;;;;;;10.48;32.45;95881.59;5028664;28;20060;-77
2022/02/06 12:12:04;;;;;;;4.97;2.90;;;;;;;10.60;31.90;95886.66;5028693;28;20030;-77
2022/02/06 12:14:33;;;;;;;4.00;3.00;;;;;;;10.61;32.19;95885.63;5028671;28;20490;-77
2022/02/06 12:20:05;;;;;;;3.40;2.50;;;;;;;10.93;33.19;95873.22;5027729;28;20084;-78
2022/02/06 12:22:30;;;;;;;3.83;2.63;;;;;;;11.02;31.65;95870.56;5027007;28;20029;-77
2022/02/06 12:25:18;;;;;;;4.90;2.67;;;;;;;11.08;32.01;95867.19;5028367;28;20026;-77
2022/02/06 12:27:45;;;;;;;3.88;2.20;;;;;;;11.18;32.25;95865.19;5028476;28;20025;-77
2022/02/06 12:30:18;;;;;;;3.72;2.50;;;;;;;11.29;31.59;95866.66;5010857;28;20037;-77
2022/02/06 12:32:44;;;;;;;;;;;;;;;11.37;30.88;95861.28;5011764;28;20443;-75
2022/02/06 12:37:55;;;;;;;3.33;2.70;;;;;;;11.50;31.71;95859.91;5026889;28;20482;-78
2022/02/06 12:40:23;;;;;;;4.38;2.60;;;;;;;11.48;31.31;95848.47;5026952;28;20030;-76
2022/02/06 12:42:51;;;;;;;3.80;2.53;;;;;;;11.56;32.34;95843.09;5010288;28;20121;-77
2022/02/06 12:45:18;;;;;;;5.72;2.83;;;;;;;11.64;31.23;95833.34;5026798;28;20512;-76
2022/02/06 12:47:51;;;;;;;7.50;3.00;;;;;;;11.70;31.91;95830.75;5026672;28;20401;-78
2022/02/06 12:50:30;;;;;;;3.53;2.38;;;;;;;11.77;32.81;95830.91;5026702;28;20030;-78
2022/02/06 12:52:56;;;;;;;3.47;2.60;;;;;;;11.92;32.25;95833.72;5027677;28;20021;-76
2022/02/06 12:55:26;;;;;;;4.97;3.13;;;;;;;12.04;32.12;95815.31;5026340;28;20029;-77
2022/02/06 12:57:52;;;;;;;6.40;3.75;;;;;;;12.17;31.43;95814.78;5009593;28;20083;-77
2022/02/06 13:00:45;;;;;;;4.82;3.08;;;;;;;12.28;31.71;95807.31;5026297;28;20061;-77
2022/02/06 13:03:34;;;;;;;4.35;2.90;;;;;;;12.36;31.56;95807.28;5027856;28;20557;-77
2022/02/06 13:06:11;;;;;;;7.78;4.80;;;;;;;12.49;31.72;95807.50;5010858;28;20068;-76
2022/02/06 13:08:41;;;;;;;7.45;3.53;;;;;;;12.56;30.81;95802.22;5009768;28;20032;-78
2022/02/06 13:11:11;;;;;;;6.82;4.13;;;;;;;12.53;30.70;95801.75;5009760;28;20037;-77
2022/02/06 13:13:46;;;;;;;5.95;3.55;;;;;;;12.59;31.37;95790.28;5010376;28;20506;-77
2022/02/06 13:22:00;;;;;;;7.40;4.00;;;;;;;12.90;30.96;95785.78;5026183;28;20026;-78
2022/02/06 13:24:44;;;;;;;4.65;2.88;;;;;;;12.98;31.49;95775.78;5012487;28;20327;-77
2022/02/06 13:30:25;;;;;;;4.18;3.20;;;;;;;13.10;30.52;95769.97;5027401;28;20025;-77
2022/02/06 13:35:31;;;;;;;4.38;3.20;;;;;;;13.18;30.54;95767.19;5026847;28;20033;-77
2022/02/06 13:38:03;;;;;;;6.35;4.00;;;;;;;13.26;30.27;95762.72;5025674;28;20446;-76
2022/02/06 13:40:32;;;;;;;4.60;3.28;;;;;;;13.31;30.30;95755.75;5008973;28;20033;-79
2022/02/06 13:43:05;;;;;;;5.40;3.83;;;;;;;13.28;30.16;95749.91;5026557;28;20389;-79
2022/02/06 13:45:33;;;;;;;7.35;3.78;;;;;;;13.37;30.25;95745.25;5025767;28;20251;-77
2022/02/06 13:48:00;;;;;;;5.68;3.40;;;;;;;13.38;30.35;95738.84;5009097;28;20037;-76
2022/02/06 13:50:26;;;;;;;5.07;3.55;;;;;;;13.35;30.07;95735.50;5025403;28;20029;-78
2022/02/06 13:53:14;;;;;;;11.95;4.80;;;;;;;13.37;30.53;95732.63;5009097;28;20094;-76
2022/02/06 13:55:54;;;;;;;6.55;4.40;;;;;;;13.48;30.52;95731.28;5009580;28;20028;-78
2022/02/06 13:58:24;;;;;;;6.63;3.58;;;;;;;13.55;30.28;95728.72;5025150;28;20041;-78
2022/02/06 14:00:59;;;;;;;5.72;4.13;;;;;;;13.70;30.95;95724.13;4992355;28;20045;-78
2022/02/06 14:03:44;;;;;;;7.40;3.65;;;;;;;13.76;31.03;95725.25;5026629;28;20490;-77
2022/02/06 14:06:10;;;;;;;6.30;3.33;;;;;;;13.76;30.99;95713.63;4992022;28;20683;-79
2022/02/06 14:08:38;;;;;;;6.88;4.15;;;;;;;13.77;30.73;95715.28;5008857;28;20025;-81
2022/02/06 14:11:15;;;;;;;5.03;3.53;;;;;;;13.81;30.58;95711.19;5026040;28;20053;-77